createdAt,value
2023-12-30T00:00:25.060Z,100503.94
2023-12-30T00:02:54.018Z,100496.06
2023-12-30T00:05:21.615Z,100508.16
2023-12-30T00:07:49.358Z,100489.91
2023-12-30T00:10:17.125Z,100495.97
2023-12-30T00:12:44.429Z,100490.69
2023-12-30T00:15:11.899Z,100501.13
2023-12-30T00:17:39.312Z,100500.34
2023-12-30T00:20:07.482Z,100508.16
2023-12-30T00:22:35.087Z,100506.47
2023-12-30T00:25:02.533Z,100516.91
2023-12-30T00:27:29.999Z,100510.81
2023-12-30T00:29:57.494Z,100523.88
2023-12-30T00:32:25.140Z,100523.03
2023-12-30T00:34:52.970Z,100523.06
2023-12-30T00:37:21.534Z,100525.69
2023-12-30T00:39:50.749Z,100522.25
2023-12-30T00:42:18.133Z,100518.81
2023-12-30T00:44:46.486Z,100529.28
2023-12-30T00:47:15.489Z,100533.69
2023-12-30T00:49:42.919Z,100528.50
2023-12-30T00:52:10.721Z,100520.72
2023-12-30T00:54:43.944Z,100525.09
2023-12-30T00:57:15.620Z,100523.50
2023-12-30T00:59:44.480Z,100526.22
2023-12-30T01:02:11.934Z,100527.09
2023-12-30T01:04:39.517Z,100532.34
2023-12-30T01:07:07.468Z,100529.75
2023-12-30T01:09:35.100Z,100530.59
2023-12-30T01:12:02.536Z,100521.94
2023-12-30T01:14:30.392Z,100524.56
2023-12-30T01:16:57.797Z,100537.59
2023-12-30T01:19:25.997Z,100537.59
2023-12-30T01:21:53.581Z,100535.00
2023-12-30T01:24:20.928Z,100541.94
2023-12-30T01:26:48.257Z,100541.88
2023-12-30T01:29:16.212Z,100534.91
2023-12-30T01:31:43.625Z,100544.50
2023-12-30T01:34:11.088Z,100538.34
2023-12-30T01:36:39.094Z,100540.06
2023-12-30T01:39:06.530Z,100551.38
2023-12-30T01:41:33.922Z,100554.84
2023-12-30T01:44:01.205Z,100544.41
2023-12-30T01:46:29.978Z,100554.03
2023-12-30T01:48:57.796Z,100546.19
2023-12-30T01:51:26.893Z,100546.19
2023-12-30T01:53:57.064Z,100558.34
2023-12-30T01:56:26.067Z,100542.66
2023-12-30T01:58:53.959Z,100550.50
2023-12-30T02:01:23.974Z,100546.25
2023-12-30T02:03:51.701Z,100547.97
2023-12-30T02:06:19.492Z,100548.88
2023-12-30T02:08:48.216Z,100548.97
2023-12-30T02:11:17.054Z,100553.34
2023-12-30T02:13:48.149Z,100568.19
2023-12-30T02:16:15.696Z,100568.28
2023-12-30T02:18:43.441Z,100566.50
2023-12-30T02:21:10.866Z,100568.25
2023-12-30T02:23:38.341Z,100580.41
2023-12-30T02:26:09.303Z,100580.41
2023-12-30T02:28:36.802Z,100583.03
2023-12-30T02:31:05.313Z,100591.69
2023-12-30T02:33:32.950Z,100597.81
2023-12-30T02:36:00.358Z,100604.84
2023-12-30T02:38:27.745Z,100595.31
2023-12-30T02:40:55.010Z,100607.56
2023-12-30T02:43:25.353Z,100609.41
2023-12-30T02:45:52.962Z,100601.69
2023-12-30T02:48:20.858Z,100609.59
2023-12-30T02:50:48.400Z,100607.09
2023-12-30T02:53:15.750Z,100600.22
2023-12-30T02:55:43.047Z,100613.31
2023-12-30T02:58:10.449Z,100616.88
2023-12-30T03:00:38.514Z,100623.06
2023-12-30T03:03:05.916Z,100621.34
2023-12-30T03:05:34.154Z,100618.78
2023-12-30T03:08:01.658Z,100616.22
2023-12-30T03:10:30.686Z,100620.59
2023-12-30T03:12:58.284Z,100615.41
2023-12-30T03:15:26.445Z,100619.78
2023-12-30T03:17:54.133Z,100617.16
2023-12-30T03:20:21.606Z,100621.63
2023-12-30T03:22:49.380Z,100625.16
2023-12-30T03:25:16.981Z,100625.19
2023-12-30T03:27:44.329Z,100637.44
2023-12-30T03:30:12.595Z,100633.16
2023-12-30T03:32:40.176Z,100628.78
2023-12-30T03:35:08.173Z,100627.94
2023-12-30T03:37:36.350Z,100621.03
2023-12-30T03:40:04.177Z,100632.38
2023-12-30T03:42:31.686Z,100631.50
2023-12-30T03:44:59.212Z,100635.03
2023-12-30T03:47:26.595Z,100628.97
2023-12-30T03:49:53.978Z,100630.72
2023-12-30T03:52:21.435Z,100642.13
2023-12-30T03:54:48.823Z,100633.41
2023-12-30T03:57:16.210Z,100641.28
2023-12-30T03:59:44.065Z,100630.00
2023-12-30T04:02:11.502Z,100644.88
2023-12-30T04:04:39.458Z,100629.22
2023-12-30T04:07:06.904Z,100640.63
2023-12-30T04:09:34.330Z,100639.78
2023-12-30T04:12:01.725Z,100642.41
2023-12-30T04:14:29.055Z,100641.50
2023-12-30T04:16:56.789Z,100648.50
2023-12-30T04:19:25.783Z,100647.69
2023-12-30T04:21:54.472Z,100652.00
2023-12-30T04:24:23.784Z,100645.94
2023-12-30T04:26:52.526Z,100645.06
2023-12-30T04:29:19.988Z,100646.78
2023-12-30T04:31:47.519Z,100647.59
2023-12-30T04:34:15.189Z,100648.47
2023-12-30T04:36:42.654Z,100650.25
2023-12-30T04:39:10.051Z,100665.94
2023-12-30T04:41:37.453Z,100659.00
2023-12-30T04:44:04.909Z,100671.19
2023-12-30T04:46:32.682Z,100680.69
2023-12-30T04:49:04.450Z,100685.00
2023-12-30T04:51:34.333Z,100679.72
2023-12-30T04:54:01.920Z,100689.25
2023-12-30T04:56:29.271Z,100693.56
2023-12-30T04:58:57.970Z,100671.78
2023-12-30T05:01:25.511Z,100677.84
2023-12-30T05:03:55.114Z,100685.63
2023-12-30T05:06:23.150Z,100683.03
2023-12-30T05:08:51.473Z,100697.03
2023-12-30T05:11:19.140Z,100702.28
2023-12-30T05:13:47.378Z,100704.13
2023-12-30T05:16:14.877Z,100702.41
2023-12-30T05:18:42.693Z,100703.28
2023-12-30T05:21:15.416Z,100696.31
2023-12-30T05:23:43.856Z,100704.22
2023-12-30T05:26:15.868Z,100705.06
2023-12-30T05:28:43.501Z,100710.38
2023-12-30T05:31:11.339Z,100709.50
2023-12-30T05:33:38.966Z,100725.19
2023-12-30T05:36:06.754Z,100716.44
2023-12-30T05:38:34.128Z,100725.19
2023-12-30T05:41:01.496Z,100737.34
2023-12-30T05:43:29.074Z,100713.75
2023-12-30T05:45:56.892Z,100728.56
2023-12-30T05:48:25.487Z,100732.88
2023-12-30T05:50:52.935Z,100735.50
2023-12-30T05:53:21.200Z,100745.00
2023-12-30T05:55:48.544Z,100743.22
2023-12-30T05:58:16.025Z,100744.03
2023-12-30T06:00:43.537Z,100743.13
2023-12-30T06:03:10.955Z,100745.72
2023-12-30T06:05:38.386Z,100740.47
2023-12-30T06:08:05.912Z,100742.22
2023-12-30T06:10:33.464Z,100743.88
2023-12-30T06:13:02.154Z,100745.59
2023-12-30T06:15:29.860Z,100762.97
2023-12-30T06:17:57.407Z,100748.16
2023-12-30T06:20:26.416Z,100758.63
2023-12-30T06:22:54.058Z,100759.53
2023-12-30T06:25:21.410Z,100768.25
2023-12-30T06:27:48.816Z,100767.41
2023-12-30T06:30:16.405Z,100770.91
2023-12-30T06:32:44.578Z,100769.19
2023-12-30T06:35:12.011Z,100773.59
2023-12-30T06:37:39.460Z,100766.63
2023-12-30T06:40:08.194Z,100770.06
2023-12-30T06:42:36.013Z,100775.28
2023-12-30T06:45:03.770Z,100767.47
2023-12-30T06:47:31.342Z,100775.28
2023-12-30T06:49:59.010Z,100777.06
2023-12-30T06:52:26.311Z,100768.38
2023-12-30T06:55:02.977Z,100779.72
2023-12-30T06:57:38.096Z,100780.59
2023-12-30T07:00:06.901Z,100782.34
2023-12-30T07:02:34.682Z,100796.38
2023-12-30T07:05:02.026Z,100800.72
2023-12-30T07:07:29.513Z,100794.66
2023-12-30T07:09:57.018Z,100807.75
2023-12-30T07:12:24.393Z,100821.72
2023-12-30T07:14:51.765Z,100830.44
2023-12-30T07:17:19.150Z,100832.22
2023-12-30T07:19:46.505Z,100833.09
2023-12-30T07:22:13.961Z,100839.22
2023-12-30T07:24:41.425Z,100838.34
2023-12-30T07:27:08.815Z,100842.69
2023-12-30T07:29:36.164Z,100840.06
2023-12-30T07:32:03.726Z,100846.19
2023-12-30T07:34:31.128Z,100861.00
2023-12-30T07:37:02.572Z,100857.50
2023-12-30T07:39:30.332Z,100864.53
2023-12-30T07:41:58.882Z,100870.63
2023-12-30T07:44:26.184Z,100879.31
2023-12-30T07:46:53.908Z,100868.03
2023-12-30T07:49:21.288Z,100878.44
2023-12-30T07:51:48.903Z,100874.88
2023-12-30T07:54:16.825Z,100872.19
2023-12-30T07:56:44.655Z,100881.69
2023-12-30T07:59:13.453Z,100883.41
2023-12-30T08:01:45.313Z,100885.09
2023-12-30T08:04:12.997Z,100882.47
2023-12-30T08:06:41.971Z,100892.03
2023-12-30T08:09:11.000Z,100902.44
2023-12-30T08:11:50.150Z,100909.41
2023-12-30T08:14:26.030Z,100906.78
2023-12-30T08:16:53.721Z,100918.13
2023-12-30T08:19:21.021Z,100923.44
2023-12-30T08:21:48.460Z,100923.47
2023-12-30T08:24:17.779Z,100930.47
2023-12-30T08:26:45.439Z,100939.22
2023-12-30T08:29:15.710Z,100937.56
2023-12-30T08:31:47.593Z,100942.81
2023-12-30T08:34:18.594Z,100952.44
2023-12-30T08:36:48.067Z,100951.56
2023-12-30T08:39:15.481Z,100949.84
2023-12-30T08:41:42.916Z,100953.44
2023-12-30T08:44:10.578Z,100951.69
2023-12-30T08:46:38.176Z,100951.69
2023-12-30T08:49:08.572Z,100956.94
2023-12-30T08:51:38.138Z,100952.63
2023-12-30T08:54:05.614Z,100953.50
2023-12-30T08:56:37.099Z,100958.75
2023-12-30T08:59:04.853Z,100950.97
2023-12-30T09:01:32.580Z,100964.09
2023-12-30T09:04:01.786Z,100962.38
2023-12-30T09:06:29.419Z,100971.16
2023-12-30T09:08:57.606Z,100970.28
2023-12-30T09:11:25.159Z,100973.81
2023-12-30T09:13:55.489Z,100965.97
2023-12-30T09:16:22.938Z,100966.88
2023-12-30T09:18:51.721Z,100969.59
2023-12-30T09:21:19.330Z,100978.38
2023-12-30T09:23:46.692Z,100981.00
2023-12-30T09:26:16.663Z,100986.28
2023-12-30T09:28:44.608Z,100990.69
2023-12-30T09:31:12.394Z,100987.25
2023-12-30T09:33:40.074Z,100982.00
2023-12-30T09:36:12.010Z,100991.63
2023-12-30T09:38:39.943Z,100991.59
2023-12-30T09:41:07.285Z,101001.19
2023-12-30T09:43:36.667Z,101002.13
2023-12-30T09:46:06.130Z,101010.00
2023-12-30T09:48:36.225Z,101015.31
2023-12-30T09:51:03.799Z,101017.06
2023-12-30T09:53:31.851Z,101018.00
2023-12-30T09:56:00.262Z,101021.56
2023-12-30T09:58:27.650Z,101017.16
2023-12-30T10:00:55.294Z,101023.34
2023-12-30T10:03:25.004Z,101023.31
2023-12-30T10:05:55.928Z,101026.81
2023-12-30T10:08:24.456Z,101021.56
2023-12-30T10:10:52.585Z,101022.47
2023-12-30T10:13:23.736Z,101039.88
2023-12-30T10:15:51.963Z,101038.09
2023-12-30T10:18:20.549Z,101036.31
2023-12-30T10:20:48.828Z,101033.69
2023-12-30T10:23:16.493Z,101033.69
2023-12-30T10:25:46.688Z,101027.63
2023-12-30T10:28:14.384Z,101040.75
2023-12-30T10:30:41.937Z,101029.50
2023-12-30T10:33:16.324Z,101026.97
2023-12-30T10:35:47.972Z,101028.88
2023-12-30T10:38:15.616Z,101026.41
2023-12-30T10:40:44.890Z,101031.75
2023-12-30T10:43:13.850Z,101031.00
2023-12-30T10:45:42.728Z,101032.78
2023-12-30T10:48:10.436Z,101030.28
2023-12-30T10:50:39.738Z,101041.75
2023-12-30T10:53:12.124Z,101043.63
2023-12-30T10:55:48.962Z,101044.59
2023-12-30T10:58:20.374Z,101040.41
2023-12-30T11:00:54.535Z,101043.97
2023-12-30T11:03:22.984Z,101047.53
2023-12-30T11:06:04.967Z,101045.78
2023-12-30T11:08:32.971Z,101059.81
2023-12-30T11:11:03.449Z,101063.38
2023-12-30T11:13:36.490Z,101064.28
2023-12-30T11:16:21.144Z,101055.59
2023-12-30T11:18:51.516Z,101057.34
2023-12-30T11:21:41.767Z,101060.09
2023-12-30T11:24:11.047Z,101055.75
2023-12-30T11:26:44.896Z,101055.00
2023-12-30T11:29:15.097Z,101058.56
2023-12-30T11:31:44.272Z,101053.38
2023-12-30T11:34:14.611Z,101041.16
2023-12-30T11:36:43.428Z,101040.28
2023-12-30T11:39:15.538Z,101047.31
2023-12-30T11:41:43.040Z,101035.94
2023-12-30T11:44:10.517Z,101049.94
2023-12-30T11:46:38.190Z,101053.38
2023-12-30T11:49:06.502Z,101055.13
2023-12-30T11:51:35.691Z,101054.22
2023-12-30T11:54:06.362Z,101061.88
2023-12-30T11:56:34.315Z,101054.81
2023-12-30T11:59:02.113Z,101059.97
2023-12-30T12:01:30.024Z,101051.19
2023-12-30T12:03:57.615Z,101061.59
2023-12-30T12:06:25.374Z,101058.06
2023-12-30T12:08:52.846Z,101058.91
2023-12-30T12:11:20.148Z,101053.66
2023-12-30T12:13:48.121Z,101058.97
2023-12-30T12:16:17.029Z,101057.25
2023-12-30T12:18:44.740Z,101064.28
2023-12-30T12:21:13.615Z,101051.22
2023-12-30T12:23:44.651Z,101051.22
2023-12-30T12:26:12.013Z,101049.50
2023-12-30T12:28:40.600Z,101052.16
2023-12-30T12:31:08.217Z,101051.28
2023-12-30T12:33:37.015Z,101047.81
2023-12-30T12:36:06.170Z,101048.66
2023-12-30T12:38:33.760Z,101046.03
2023-12-30T12:41:02.673Z,101047.78
2023-12-30T12:43:31.336Z,101040.75
2023-12-30T12:45:59.295Z,101038.94
2023-12-30T12:48:26.909Z,101038.94
2023-12-30T12:50:57.102Z,101038.84
2023-12-30T12:53:24.851Z,101034.41
2023-12-30T12:55:52.507Z,101028.28
2023-12-30T12:58:19.890Z,101028.25
2023-12-30T13:00:48.071Z,101036.91
2023-12-30T13:03:15.585Z,101029.91
2023-12-30T13:05:44.890Z,101025.50
2023-12-30T13:08:12.197Z,101015.88
2023-12-30T13:10:48.484Z,101013.25
2023-12-30T13:13:15.951Z,101026.34
2023-12-30T13:15:43.940Z,101023.72
2023-12-30T13:18:15.502Z,101015.03
2023-12-30T13:20:46.602Z,101018.50
2023-12-30T13:23:16.760Z,101008.00
2023-12-30T13:25:45.455Z,101008.00
2023-12-30T13:28:13.727Z,101012.41
2023-12-30T13:30:41.910Z,101018.50
2023-12-30T13:33:12.163Z,101016.78
2023-12-30T13:35:40.661Z,101015.91
2023-12-30T13:38:14.047Z,101000.19
2023-12-30T13:40:43.222Z,100993.22
2023-12-30T13:43:11.528Z,101003.72
2023-12-30T13:45:45.210Z,100991.50
2023-12-30T13:48:26.512Z,101006.38
2023-12-30T13:50:57.459Z,101002.91
2023-12-30T13:53:25.802Z,100993.31
2023-12-30T13:56:07.187Z,101000.34
2023-12-30T13:58:34.784Z,100994.28
2023-12-30T14:01:02.251Z,100998.72
2023-12-30T14:03:30.348Z,100994.34
2023-12-30T14:05:58.219Z,100993.47
2023-12-30T14:08:28.652Z,100985.63
2023-12-30T14:10:56.208Z,100984.78
2023-12-30T14:13:24.984Z,100977.81
2023-12-30T14:15:52.899Z,100986.53
2023-12-30T14:18:20.637Z,100974.31
2023-12-30T14:20:48.298Z,100976.94
2023-12-30T14:23:15.960Z,100976.97
2023-12-30T14:25:46.112Z,100979.56
2023-12-30T14:28:15.027Z,100975.16
2023-12-30T14:30:42.547Z,100976.91
2023-12-30T14:33:10.256Z,100979.50
2023-12-30T14:35:37.858Z,100975.97
2023-12-30T14:38:07.252Z,100980.34
2023-12-30T14:40:35.742Z,100982.97
2023-12-30T14:43:04.722Z,100987.28
2023-12-30T14:45:32.292Z,100984.69
2023-12-30T14:48:01.925Z,100989.91
2023-12-30T14:50:30.181Z,100990.78
2023-12-30T14:52:57.743Z,100987.28
2023-12-30T14:55:25.855Z,100977.72
2023-12-30T14:57:53.421Z,100978.59
2023-12-30T15:00:23.309Z,100985.63
2023-12-30T15:02:51.846Z,100973.38
2023-12-30T15:05:23.142Z,100973.38
2023-12-30T15:07:55.740Z,100979.47
2023-12-30T15:10:25.698Z,100981.25
2023-12-30T15:12:53.714Z,100976.84
2023-12-30T15:15:21.205Z,100974.25
2023-12-30T15:17:49.407Z,100973.41
2023-12-30T15:20:18.767Z,100972.53
2023-12-30T15:22:46.243Z,100981.28
2023-12-30T15:25:13.978Z,100982.25
2023-12-30T15:27:42.440Z,100977.91
2023-12-30T15:30:11.086Z,100980.53
2023-12-30T15:32:40.289Z,100966.59
2023-12-30T15:35:10.178Z,100968.38
2023-12-30T15:37:38.326Z,100966.66
2023-12-30T15:40:07.118Z,100976.25
2023-12-30T15:42:34.539Z,100969.28
2023-12-30T15:45:02.014Z,100975.44
2023-12-30T15:47:31.541Z,100975.44
2023-12-30T15:49:59.893Z,100968.41
2023-12-30T15:52:27.697Z,100978.94
2023-12-30T15:55:00.001Z,100980.69
2023-12-30T15:57:27.858Z,100966.69
2023-12-30T15:59:55.576Z,100968.47
2023-12-30T16:02:23.208Z,100972.81
2023-12-30T16:04:51.098Z,100970.22
2023-12-30T16:07:18.456Z,100964.06
2023-12-30T16:09:45.834Z,100965.84
2023-12-30T16:12:14.893Z,100959.72
2023-12-30T16:14:42.194Z,100966.72
2023-12-30T16:17:10.814Z,100961.47
2023-12-30T16:19:38.343Z,100968.50
2023-12-30T16:22:05.787Z,100965.00
2023-12-30T16:24:33.312Z,100959.75
2023-12-30T16:27:01.238Z,100964.97
2023-12-30T16:29:28.673Z,100956.19
2023-12-30T16:31:58.201Z,100956.16
2023-12-30T16:34:25.820Z,100945.63
2023-12-30T16:36:53.704Z,100952.63
2023-12-30T16:39:21.186Z,100936.00
2023-12-30T16:41:48.499Z,100936.00
2023-12-30T16:44:15.972Z,100942.09
2023-12-30T16:46:43.566Z,100939.50
2023-12-30T16:49:11.144Z,100940.31
2023-12-30T16:51:39.562Z,100940.31
2023-12-30T16:54:14.175Z,100944.72
2023-12-30T16:56:41.713Z,100942.09
2023-12-30T16:59:10.302Z,100932.50
2023-12-30T17:01:38.042Z,100924.66
2023-12-30T17:04:05.851Z,100931.66
2023-12-30T17:06:34.939Z,100923.84
2023-12-30T17:09:04.919Z,100921.22
2023-12-30T17:11:32.677Z,100909.88
2023-12-30T17:14:00.504Z,100914.28
2023-12-30T17:16:29.045Z,100917.75
2023-12-30T17:18:56.488Z,100917.75
2023-12-30T17:21:23.881Z,100903.78
2023-12-30T17:23:51.298Z,100916.94
2023-12-30T17:26:19.390Z,100912.59
2023-12-30T17:28:46.891Z,100909.97
2023-12-30T17:31:14.570Z,100913.50
2023-12-30T17:33:42.088Z,100903.03
2023-12-30T17:36:09.567Z,100905.63
2023-12-30T17:38:38.022Z,100904.81
2023-12-30T17:41:05.650Z,100902.19
2023-12-30T17:43:33.137Z,100903.06
2023-12-30T17:46:00.793Z,100890.84
2023-12-30T17:48:28.253Z,100889.94
2023-12-30T17:50:55.878Z,100889.94
2023-12-30T17:53:23.177Z,100897.84
2023-12-30T17:55:50.744Z,100903.06
2023-12-30T17:58:18.295Z,100896.97
2023-12-30T18:00:45.760Z,100890.91
2023-12-30T18:03:13.464Z,100892.63
2023-12-30T18:05:40.882Z,100892.63
2023-12-30T18:08:08.484Z,100887.44
2023-12-30T18:10:36.169Z,100890.94
2023-12-30T18:13:04.202Z,100891.81
2023-12-30T18:15:32.520Z,100887.44
2023-12-30T18:18:00.006Z,100882.19
2023-12-30T18:20:29.118Z,100884.81
2023-12-30T18:22:56.784Z,100884.84
2023-12-30T18:25:24.209Z,100879.59
2023-12-30T18:27:52.093Z,100874.38
2023-12-30T18:30:19.999Z,100885.75
2023-12-30T18:32:47.583Z,100887.50
2023-12-30T18:35:15.272Z,100883.13
2023-12-30T18:37:45.264Z,100878.78
2023-12-30T18:40:12.862Z,100878.78
2023-12-30T18:42:40.424Z,100872.66
2023-12-30T18:45:08.072Z,100874.47
2023-12-30T18:47:35.454Z,100875.28
2023-12-30T18:50:03.083Z,100869.19
2023-12-30T18:52:30.823Z,100863.94
2023-12-30T18:54:58.369Z,100858.69
2023-12-30T18:57:25.859Z,100855.22
2023-12-30T18:59:54.911Z,100857.00
2023-12-30T19:02:22.315Z,100851.75
2023-12-30T19:04:49.915Z,100851.78
2023-12-30T19:07:18.243Z,100843.94
2023-12-30T19:09:45.631Z,100832.56
2023-12-30T19:12:13.048Z,100836.97
2023-12-30T19:14:40.395Z,100843.06
2023-12-30T19:17:08.443Z,100833.50
2023-12-30T19:19:36.014Z,100831.75
2023-12-30T19:22:05.269Z,100832.63
2023-12-30T19:24:35.680Z,100820.38
2023-12-30T19:27:04.732Z,100820.38
2023-12-30T19:29:32.256Z,100812.50
2023-12-30T19:31:59.933Z,100802.84
2023-12-30T19:34:27.806Z,100798.47
2023-12-30T19:36:55.645Z,100791.44
2023-12-30T19:39:22.978Z,100787.91
2023-12-30T19:41:51.634Z,100786.97
2023-12-30T19:44:20.496Z,100777.38
2023-12-30T19:46:49.277Z,100784.31
2023-12-30T19:49:17.143Z,100772.94
2023-12-30T19:51:44.903Z,100772.03
2023-12-30T19:54:13.177Z,100778.13
2023-12-30T19:56:40.652Z,100771.09
2023-12-30T19:59:08.049Z,100772.81
2023-12-30T20:01:35.384Z,100766.66
2023-12-30T20:04:03.754Z,100769.25
2023-12-30T20:06:31.348Z,100766.63
2023-12-30T20:09:00.462Z,100766.59
2023-12-30T20:11:33.744Z,100757.84
2023-12-30T20:14:01.089Z,100765.66
2023-12-30T20:16:28.463Z,100763.03
2023-12-30T20:18:55.846Z,100760.38
2023-12-30T20:21:23.233Z,100763.88
2023-12-30T20:23:51.830Z,100749.84
2023-12-30T20:26:19.252Z,100755.09
2023-12-30T20:28:46.573Z,100756.81
2023-12-30T20:31:18.692Z,100735.88
2023-12-30T20:33:47.006Z,100728.91
2023-12-30T20:36:24.555Z,100728.00
2023-12-30T20:38:51.892Z,100737.63
2023-12-30T20:41:19.261Z,100725.41
2023-12-30T20:43:47.036Z,100728.06
2023-12-30T20:46:14.390Z,100725.44
2023-12-30T20:48:43.849Z,100723.69
2023-12-30T20:51:11.273Z,100714.09
2023-12-30T20:53:39.020Z,100713.25
2023-12-30T20:56:06.644Z,100709.75
2023-12-30T20:58:34.043Z,100710.59
2023-12-30T21:01:01.509Z,100707.13
2023-12-30T21:03:30.744Z,100703.63
2023-12-30T21:05:58.393Z,100706.22
2023-12-30T21:08:25.896Z,100704.50
2023-12-30T21:10:53.281Z,100699.25
2023-12-30T21:13:21.250Z,100701.88
2023-12-30T21:15:49.139Z,100699.25
2023-12-30T21:18:16.609Z,100700.13
2023-12-30T21:20:44.725Z,100701.00
2023-12-30T21:23:12.167Z,100699.25
2023-12-30T21:25:39.899Z,100691.34
2023-12-30T21:28:07.816Z,100695.72
2023-12-30T21:30:35.436Z,100693.09
2023-12-30T21:33:03.508Z,100689.59
2023-12-30T21:35:31.110Z,100686.94
2023-12-30T21:37:58.505Z,100700.88
2023-12-30T21:40:28.181Z,100687.78
2023-12-30T21:42:55.522Z,100689.50
2023-12-30T21:45:22.827Z,100685.09
2023-12-30T21:47:50.663Z,100681.59
2023-12-30T21:50:18.134Z,100672.81
2023-12-30T21:52:46.580Z,100674.56
2023-12-30T21:55:15.711Z,100672.78
2023-12-30T21:57:43.123Z,100665.78
2023-12-30T22:00:12.526Z,100663.13
2023-12-30T22:02:40.508Z,100666.56
2023-12-30T22:05:09.685Z,100655.22
2023-12-30T22:07:38.358Z,100651.69
2023-12-30T22:10:06.626Z,100656.06
2023-12-30T22:12:34.054Z,100648.16
2023-12-30T22:15:01.863Z,100650.78
2023-12-30T22:17:29.556Z,100641.16
2023-12-30T22:19:57.678Z,100636.81
2023-12-30T22:22:25.169Z,100635.88
2023-12-30T22:24:52.573Z,100624.50
2023-12-30T22:27:22.999Z,100620.13
2023-12-30T22:29:50.428Z,100617.50
2023-12-30T22:32:17.909Z,100617.47
2023-12-30T22:34:45.705Z,100622.72
2023-12-30T22:37:13.463Z,100623.53
2023-12-30T22:39:40.945Z,100625.31
2023-12-30T22:42:09.098Z,100617.44
2023-12-30T22:44:38.737Z,100608.69
2023-12-30T22:47:06.887Z,100620.91
2023-12-30T22:49:34.251Z,100617.41
2023-12-30T22:52:01.722Z,100613.91
2023-12-30T22:54:30.592Z,100612.16
2023-12-30T22:56:58.090Z,100609.56
2023-12-30T22:59:25.425Z,100609.56
2023-12-30T23:01:53.059Z,100597.34
2023-12-30T23:04:20.487Z,100606.03
2023-12-30T23:06:49.530Z,100590.34
2023-12-30T23:09:16.852Z,100588.59
2023-12-30T23:11:44.567Z,100579.00
2023-12-30T23:14:12.118Z,100579.81
2023-12-30T23:16:39.634Z,100570.19
2023-12-30T23:19:08.026Z,100574.56
2023-12-30T23:21:35.898Z,100563.22
2023-12-30T23:24:05.160Z,100564.97
2023-12-30T23:26:32.517Z,100551.88
2023-12-30T23:28:59.917Z,100551.88
2023-12-30T23:31:27.316Z,100552.81
2023-12-30T23:33:54.727Z,100549.31
2023-12-30T23:36:22.285Z,100554.66
2023-12-30T23:38:49.663Z,100547.69
2023-12-30T23:41:17.240Z,100546.91
2023-12-30T23:43:45.429Z,100545.22
2023-12-30T23:46:13.482Z,100529.53
2023-12-30T23:48:41.108Z,100521.72
2023-12-30T23:51:08.597Z,100520.03
2023-12-30T23:53:37.483Z,100514.81
2023-12-30T23:56:05.383Z,100516.59
2023-12-30T23:58:33.102Z,100512.28
